Time;durP1;ratioP1;P1;durP2;ratioP2;P2;SDS_P1;SDS_P2;PMS_P1;PMS_P2;Temp;Humidity;BMP_temperature;BMP_pressure;BME280_temperature;BME280_humidity;BME280_pressure;Samples;Min_cycle;Max_cycle;Signal;HPM_P1;HPM_P2
2022/07/27 00:01:29;;;;;;;7.95;2.22;;;14.60;99.90;;;;;;5097567;28;20105;-72
2022/07/27 00:03:54;;;;;;;9.32;2.38;;;14.60;99.90;;;;;;5097396;28;20051;-70
2022/07/27 00:06:20;;;;;;;9.68;2.88;;;14.40;99.90;;;;;;5097513;28;20129;-71
2022/07/27 00:08:46;;;;;;;7.85;2.47;;;14.40;99.90;;;;;;5097455;28;20050;-70
2022/07/27 00:11:12;;;;;;;5.32;2.20;;;14.40;99.90;;;;;;5097404;28;20032;-72
2022/07/27 00:13:37;;;;;;;8.45;2.15;;;14.40;99.90;;;;;;5097286;28;20462;-70
2022/07/27 00:16:03;;;;;;;8.63;3.22;;;14.40;99.90;;;;;;5097252;28;20044;-69
2022/07/27 00:18:29;;;;;;;9.15;2.60;;;14.30;99.90;;;;;;5097254;28;20044;-70
2022/07/27 00:20:55;;;;;;;9.52;2.50;;;14.20;99.90;;;;;;5096946;28;20541;-71
2022/07/27 00:23:20;;;;;;;8.30;2.22;;;14.10;99.90;;;;;;5097271;28;20512;-72
2022/07/27 00:25:46;;;;;;;7.38;2.33;;;14.10;99.90;;;;;;5097062;28;20080;-71
2022/07/27 00:28:12;;;;;;;9.02;2.10;;;14.00;99.90;;;;;;5096673;28;20067;-72
2022/07/27 00:30:37;;;;;;;10.07;3.33;;;14.00;99.90;;;;;;5096829;28;20044;-71
2022/07/27 00:33:04;;;;;;;10.30;2.15;;;13.90;99.90;;;;;;5096906;28;20129;-71
2022/07/27 00:35:30;;;;;;;8.07;3.00;;;13.90;99.90;;;;;;5097085;28;20491;-69
2022/07/27 00:37:56;;;;;;;8.25;2.17;;;13.80;99.90;;;;;;5096954;28;20036;-72
2022/07/27 00:40:22;;;;;;;6.82;1.98;;;13.70;99.90;;;;;;5096788;28;20104;-72
2022/07/27 00:42:47;;;;;;;7.47;2.25;;;13.70;99.90;;;;;;5096754;28;20044;-72
2022/07/27 00:45:13;;;;;;;7.55;2.58;;;13.70;99.90;;;;;;5096552;28;20076;-70
2022/07/27 00:47:39;;;;;;;7.10;2.47;;;13.60;99.90;;;;;;5096670;28;20055;-69
2022/07/27 00:50:05;;;;;;;9.80;2.13;;;13.60;99.90;;;;;;5096634;28;20035;-69
2022/07/27 00:52:31;;;;;;;10.93;2.00;;;13.60;99.90;;;;;;5096525;28;20086;-69
2022/07/27 00:54:57;;;;;;;5.35;2.10;;;13.60;99.90;;;;;;5096494;28;20142;-72
2022/07/27 00:57:25;;;;;;;13.45;2.35;;;13.50;99.90;;;;;;5078585;28;20499;-72
2022/07/27 00:59:50;;;;;;;7.65;2.33;;;13.50;99.90;;;;;;5096420;28;20040;-72
2022/07/27 01:02:16;;;;;;;8.10;2.00;;;13.50;99.90;;;;;;5096405;28;20036;-69
2022/07/27 01:04:42;;;;;;;8.35;2.22;;;13.50;99.90;;;;;;5096781;28;20062;-73
2022/07/27 01:07:08;;;;;;;8.90;1.80;;;13.50;99.90;;;;;;5096590;28;20048;-71
2022/07/27 01:12:22;;;;;;;7.80;2.35;;;13.50;99.90;;;;;;5095786;28;20052;-70
2022/07/27 01:14:49;;;;;;;8.02;2.00;;;13.50;99.90;;;;;;5096131;28;20131;-71
2022/07/27 01:17:15;;;;;;;7.88;2.75;;;13.50;99.90;;;;;;5096029;28;20378;-71
2022/07/27 01:19:41;;;;;;;5.35;1.95;;;13.50;99.90;;;;;;5078234;28;20035;-71
2022/07/27 01:22:07;;;;;;;9.25;2.20;;;13.50;99.90;;;;;;5095996;28;20040;-73
2022/07/27 01:24:33;;;;;;;7.57;1.55;;;13.50;99.90;;;;;;5096352;28;20063;-72
2022/07/27 01:27:03;;;;;;;5.68;1.83;;;13.40;99.90;;;;;;5095871;28;20047;-72
2022/07/27 01:29:30;;;;;;;5.95;1.90;;;13.40;99.90;;;;;;5095798;28;20044;-71
2022/07/27 01:31:55;;;;;;;6.78;2.15;;;13.40;99.90;;;;;;5095848;28;20059;-69
2022/07/27 01:34:21;;;;;;;7.38;2.45;;;13.30;99.90;;;;;;5095793;28;20039;-70
2022/07/27 01:36:47;;;;;;;8.65;2.40;;;13.20;99.90;;;;;;5095844;28;20134;-72
2022/07/27 01:39:15;;;;;;;9.32;2.13;;;13.20;99.90;;;;;;5095675;28;20090;-72
2022/07/27 01:41:40;;;;;;;6.45;2.25;;;13.20;99.90;;;;;;5077818;28;20048;-70
2022/07/27 01:44:06;;;;;;;9.63;1.67;;;13.10;99.90;;;;;;5095620;28;20048;-69
2022/07/27 01:46:32;;;;;;;5.70;2.05;;;13.10;99.90;;;;;;5095822;28;20035;-70
2022/07/27 01:48:58;;;;;;;8.30;1.92;;;13.10;99.90;;;;;;5095780;28;20079;-69
2022/07/27 01:51:23;;;;;;;9.70;2.53;;;13.10;99.90;;;;;;5095565;28;20073;-70
2022/07/27 01:53:49;;;;;;;6.57;2.08;;;13.10;99.90;;;;;;5095400;28;20133;-72
2022/07/27 01:56:15;;;;;;;5.82;1.52;;;13.10;99.90;;;;;;5095479;28;20354;-70
2022/07/27 01:58:41;;;;;;;9.27;1.90;;;13.00;99.90;;;;;;5095456;28;20076;-70
2022/07/27 02:01:07;;;;;;;8.98;1.98;;;13.00;99.90;;;;;;5095499;28;20051;-72
2022/07/27 02:03:34;;;;;;;8.40;2.28;;;13.00;99.90;;;;;;5095461;28;20048;-70
2022/07/27 02:06:00;;;;;;;7.78;1.80;;;12.90;99.90;;;;;;5077630;28;20101;-69
2022/07/27 02:08:26;;;;;;;10.25;2.45;;;12.90;99.90;;;;;;5077696;28;20047;-69
2022/07/27 02:13:36;;;;;;;6.65;2.05;;;13.00;99.90;;;;;;5095273;28;20044;-69
2022/07/27 02:16:02;;;;;;;7.15;2.13;;;13.00;99.90;;;;;;5095378;28;20048;-71
2022/07/27 02:18:27;;;;;;;10.68;2.30;;;12.90;99.90;;;;;;5095193;28;20066;-72
2022/07/27 02:20:53;;;;;;;10.07;2.38;;;13.00;99.90;;;;;;5095196;28;20120;-72
2022/07/27 02:23:19;;;;;;;9.35;2.25;;;13.00;99.90;;;;;;5096838;28;20075;-69
2022/07/27 02:25:44;;;;;;;11.15;2.22;;;13.10;99.90;;;;;;5099617;28;20040;-70
2022/07/27 02:28:10;;;;;;;10.68;2.00;;;13.00;99.90;;;;;;5099346;28;20117;-69
2022/07/27 02:30:36;;;;;;;7.45;1.95;;;13.10;99.90;;;;;;5081466;28;20063;-69
2022/07/27 02:33:02;;;;;;;10.93;2.00;;;13.10;99.90;;;;;;5099294;28;20039;-73
2022/07/27 02:35:28;;;;;;;9.80;3.08;;;13.20;99.90;;;;;;5099349;28;20458;-70
2022/07/27 02:37:53;;;;;;;8.20;2.17;;;13.10;99.90;;;;;;5099305;28;20036;-70
2022/07/27 02:40:19;;;;;;;12.30;2.30;;;13.20;99.90;;;;;;5099161;28;20093;-72
2022/07/27 02:42:45;;;;;;;8.73;2.35;;;13.20;99.90;;;;;;5099218;28;20370;-71
2022/07/27 02:45:11;;;;;;;8.90;2.65;;;13.20;99.90;;;;;;5081512;28;20044;-70
2022/07/27 02:47:38;;;;;;;8.18;1.73;;;13.30;99.90;;;;;;5081049;28;20059;-70
2022/07/27 02:50:05;;;;;;;7.97;1.88;;;13.40;99.90;;;;;;5098841;28;20047;-69
2022/07/27 02:52:31;;;;;;;5.85;2.40;;;13.40;99.90;;;;;;5080904;28;20058;-69
2022/07/27 02:54:57;;;;;;;4.38;2.00;;;13.40;99.90;;;;;;5081180;28;20044;-69
2022/07/27 02:57:22;;;;;;;7.82;2.00;;;13.40;99.90;;;;;;5098877;28;20048;-71
2022/07/27 02:59:48;;;;;;;4.45;1.80;;;13.50;99.90;;;;;;5098825;28;20481;-73
2022/07/27 03:02:13;;;;;;;7.53;2.35;;;13.50;99.90;;;;;;5098719;28;20044;-69
2022/07/27 03:04:39;;;;;;;9.30;2.28;;;13.50;99.90;;;;;;5081037;28;20057;-70
2022/07/27 03:07:05;;;;;;;10.68;3.45;;;13.50;99.90;;;;;;5098685;28;20443;-72
2022/07/27 03:09:30;;;;;;;9.00;2.25;;;13.50;99.90;;;;;;5098626;28;20442;-71
2022/07/27 03:11:56;;;;;;;9.52;2.20;;;13.50;99.90;;;;;;5098636;28;20405;-69
2022/07/27 03:14:21;;;;;;;11.27;2.45;;;13.50;99.90;;;;;;5098566;28;20101;-69
2022/07/27 03:16:47;;;;;;;6.80;1.80;;;13.50;99.90;;;;;;5098347;28;20052;-70
2022/07/27 03:19:12;;;;;;;7.55;2.30;;;13.60;99.90;;;;;;5098219;28;20043;-71
2022/07/27 03:21:38;;;;;;;6.47;2.05;;;13.50;99.90;;;;;;5080353;28;20059;-70
2022/07/27 03:24:04;;;;;;;6.20;2.60;;;13.60;99.90;;;;;;5098180;28;20102;-72
2022/07/27 03:26:31;;;;;;;15.63;2.88;;;13.60;99.90;;;;;;5098245;28;20032;-72
2022/07/27 03:28:56;;;;;;;7.78;2.40;;;13.60;99.90;;;;;;5098146;28;20060;-70
2022/07/27 03:31:22;;;;;;;8.57;2.40;;;13.60;99.90;;;;;;5098072;28;20047;-68
2022/07/27 03:33:48;;;;;;;9.75;2.55;;;13.70;99.90;;;;;;5097681;28;20173;-69
2022/07/27 03:36:13;;;;;;;13.68;2.38;;;13.70;99.90;;;;;;5080163;28;20458;-71
2022/07/27 03:38:39;;;;;;;12.10;2.40;;;13.70;99.90;;;;;;5098045;28;20052;-68
2022/07/27 03:41:05;;;;;;;7.80;2.80;;;13.70;99.90;;;;;;5098004;28;20482;-71
2022/07/27 03:43:31;;;;;;;15.27;3.10;;;13.60;99.90;;;;;;5097933;28;20525;-71
2022/07/27 03:45:57;;;;;;;10.23;3.35;;;13.60;99.90;;;;;;5097966;28;20115;-69
2022/07/27 03:48:22;;;;;;;10.43;2.60;;;13.60;99.90;;;;;;5097743;28;20434;-72
2022/07/27 03:50:48;;;;;;;6.90;2.55;;;13.60;99.90;;;;;;5097467;28;20078;-71
2022/07/27 03:53:14;;;;;;;12.15;2.83;;;13.60;99.90;;;;;;5097711;28;20039;-72
2022/07/27 03:55:39;;;;;;;4.45;2.30;;;13.60;99.90;;;;;;5097652;28;20036;-72
2022/07/27 03:58:05;;;;;;;9.55;3.00;;;13.70;99.90;;;;;;5080014;28;20059;-72
2022/07/27 04:00:30;;;;;;;9.52;2.60;;;13.80;99.90;;;;;;5097734;28;20122;-70
2022/07/27 04:02:56;;;;;;;7.93;2.50;;;13.70;99.90;;;;;;5097819;28;20055;-68
2022/07/27 04:05:21;;;;;;;10.35;2.95;;;13.70;99.90;;;;;;5097173;28;20047;-72
2022/07/27 04:07:47;;;;;;;7.60;2.33;;;13.70;99.90;;;;;;5097496;28;20131;-71
2022/07/27 04:10:13;;;;;;;7.70;2.50;;;13.70;99.90;;;;;;5079935;28;20048;-68
2022/07/27 04:12:39;;;;;;;6.35;3.10;;;13.70;99.90;;;;;;5079103;28;20496;-72
2022/07/27 04:15:05;;;;;;;10.57;3.05;;;13.80;99.90;;;;;;5097411;28;20185;-69
2022/07/27 04:17:31;;;;;;;9.63;3.15;;;13.80;99.90;;;;;;5097277;28;20044;-69
2022/07/27 04:19:57;;;;;;;12.02;3.13;;;13.80;99.90;;;;;;5097198;28;20054;-72
2022/07/27 04:22:22;;;;;;;9.25;3.25;;;13.80;99.90;;;;;;5097130;28;20430;-72
2022/07/27 04:24:48;;;;;;;10.55;2.97;;;13.80;99.90;;;;;;5097478;28;20390;-71
2022/07/27 04:27:13;;;;;;;6.75;2.90;;;13.80;99.90;;;;;;5097112;28;20052;-72
2022/07/27 04:29:39;;;;;;;8.70;2.63;;;13.90;99.90;;;;;;5096953;28;20052;-71
2022/07/27 04:32:05;;;;;;;9.32;2.85;;;13.90;99.90;;;;;;5097040;28;20070;-72
2022/07/27 04:34:30;;;;;;;11.75;3.35;;;14.00;99.90;;;;;;5096758;28;20355;-69
2022/07/27 04:36:56;;;;;;;11.68;3.60;;;13.90;99.90;;;;;;5096785;28;20044;-72
2022/07/27 04:39:22;;;;;;;11.65;3.08;;;14.00;99.90;;;;;;5096856;28;20443;-70
2022/07/27 04:41:47;;;;;;;4.45;2.75;;;14.10;99.90;;;;;;5096751;28;20090;-71
2022/07/27 04:44:13;;;;;;;8.30;2.80;;;14.10;99.90;;;;;;5096851;28;20040;-69
2022/07/27 04:46:39;;;;;;;20.55;3.47;;;14.10;99.90;;;;;;5095896;28;20040;-71
2022/07/27 04:49:05;;;;;;;8.43;2.83;;;14.00;99.90;;;;;;5096592;28;20044;-69
2022/07/27 04:51:30;;;;;;;7.63;2.78;;;14.00;99.90;;;;;;5096644;28;20346;-70
2022/07/27 04:53:56;;;;;;;9.55;2.72;;;14.00;99.90;;;;;;5096820;28;20044;-70
2022/07/27 04:56:21;;;;;;;12.00;2.80;;;14.00;99.90;;;;;;5096722;28;20438;-69
2022/07/27 04:58:47;;;;;;;9.25;3.35;;;13.90;99.90;;;;;;5096453;28;20433;-69
2022/07/27 05:01:13;;;;;;;6.65;2.50;;;13.90;99.90;;;;;;5096483;28;20093;-71
2022/07/27 05:03:41;;;;;;;9.52;2.70;;;13.90;99.90;;;;;;5096227;28;20044;-72
2022/07/27 05:06:07;;;;;;;7.03;2.20;;;13.80;99.90;;;;;;5096038;28;20470;-72
2022/07/27 05:08:33;;;;;;;9.23;2.55;;;13.80;99.90;;;;;;5096274;28;20044;-70
2022/07/27 05:10:59;;;;;;;6.18;2.15;;;13.80;99.90;;;;;;5096122;28;20122;-70
2022/07/27 05:13:24;;;;;;;5.70;2.25;;;13.70;99.90;;;;;;5096287;28;20513;-71
2022/07/27 05:15:50;;;;;;;7.05;2.40;;;13.70;99.90;;;;;;5096093;28;20052;-72
2022/07/27 05:18:15;;;;;;;12.20;2.67;;;13.70;99.90;;;;;;5095728;28;20088;-70
2022/07/27 05:20:41;;;;;;;11.25;2.67;;;13.70;99.90;;;;;;5096227;28;20047;-71
2022/07/27 05:23:06;;;;;;;8.35;2.45;;;13.70;99.90;;;;;;5096120;28;20040;-69
2022/07/27 05:25:32;;;;;;;6.78;2.25;;;13.80;99.90;;;;;;5095932;28;20044;-72
2022/07/27 05:27:57;;;;;;;11.13;2.88;;;13.80;99.90;;;;;;5095885;28;20047;-70
2022/07/27 05:30:24;;;;;;;9.65;2.42;;;13.70;99.90;;;;;;5095811;28;20056;-72
2022/07/27 05:32:50;;;;;;;8.35;2.28;;;13.80;99.90;;;;;;5095712;28;20051;-71
2022/07/27 05:35:17;;;;;;;7.57;2.53;;;13.80;99.90;;;;;;5095924;28;20051;-72
2022/07/27 05:37:43;;;;;;;9.98;2.40;;;13.80;99.90;;;;;;5078136;28;20124;-68
2022/07/27 05:40:09;;;;;;;7.25;1.92;;;13.90;99.90;;;;;;5095881;28;20165;-70
2022/07/27 05:42:35;;;;;;;10.23;2.30;;;13.90;99.90;;;;;;5095737;28;20036;-71
2022/07/27 05:45:00;;;;;;;12.23;2.95;;;13.90;99.90;;;;;;5095759;28;20044;-72
2022/07/27 05:47:26;;;;;;;11.38;2.65;;;13.90;99.90;;;;;;5095738;28;20115;-71
2022/07/27 05:49:52;;;;;;;5.57;1.75;;;14.00;99.90;;;;;;5095542;28;20442;-72
2022/07/27 05:52:19;;;;;;;17.17;3.17;;;14.00;99.90;;;;;;5095525;28;20044;-72
2022/07/27 05:54:45;;;;;;;6.25;2.22;;;14.00;99.90;;;;;;5095479;28;20051;-70
2022/07/27 05:57:11;;;;;;;8.57;2.30;;;14.10;99.90;;;;;;5095476;28;20044;-68
2022/07/27 05:59:37;;;;;;;6.13;1.98;;;14.10;99.90;;;;;;5095431;28;20040;-72
2022/07/27 06:02:03;;;;;;;4.43;2.05;;;14.20;99.90;;;;;;5095287;28;20370;-68
2022/07/27 06:04:29;;;;;;;4.22;1.70;;;14.30;99.90;;;;;;5095038;28;20150;-71
2022/07/27 06:09:39;;;;;;;;;;;14.30;99.90;;;;;;5095795;28;20047;-70
2022/07/27 06:12:05;;;;;;;11.13;2.22;;;14.40;99.90;;;;;;5095351;28;20266;-73
2022/07/27 06:14:31;;;;;;;7.25;2.10;;;14.50;99.90;;;;;;5095176;28;20044;-72
2022/07/27 06:16:57;;;;;;;6.40;2.35;;;14.60;99.90;;;;;;5095024;28;20434;-70
2022/07/27 06:19:23;;;;;;;10.38;2.53;;;14.60;99.90;;;;;;5095034;28;20516;-70
2022/07/27 06:21:49;;;;;;;6.65;2.17;;;14.60;99.90;;;;;;5095196;28;20048;-71
2022/07/27 06:24:14;;;;;;;4.43;2.22;;;14.70;99.90;;;;;;5095202;28;20453;-72
2022/07/27 06:26:40;;;;;;;10.73;2.58;;;14.80;99.90;;;;;;5095097;28;20102;-69
2022/07/27 06:29:06;;;;;;;8.48;2.50;;;14.90;99.90;;;;;;5094928;28;20052;-70
2022/07/27 06:31:31;;;;;;;8.35;2.22;;;15.00;99.90;;;;;;5077513;28;20415;-70
2022/07/27 06:33:57;;;;;;;7.70;2.33;;;15.10;99.90;;;;;;5095056;28;20048;-70
2022/07/27 06:36:23;;;;;;;6.43;2.00;;;15.30;99.90;;;;;;5095256;28;20056;-72
2022/07/27 06:38:49;;;;;;;4.65;2.17;;;15.40;99.90;;;;;;5095171;28;20050;-69
2022/07/27 06:41:14;;;;;;;6.93;2.17;;;15.50;99.90;;;;;;5094921;28;20048;-69
2022/07/27 06:43:40;;;;;;;7.55;1.90;;;15.60;99.90;;;;;;5077366;28;20040;-73
2022/07/27 06:46:06;;;;;;;9.80;2.70;;;15.80;99.90;;;;;;5094776;28;20055;-72
2022/07/27 06:48:32;;;;;;;8.05;2.25;;;16.00;99.90;;;;;;5094854;28;20044;-71
2022/07/27 06:50:59;;;;;;;7.95;2.63;;;16.20;99.90;;;;;;5094806;28;20071;-72
2022/07/27 06:53:25;;;;;;;8.25;2.00;;;16.20;99.90;;;;;;5094838;28;20043;-72
2022/07/27 06:55:52;;;;;;;5.65;1.85;;;16.20;99.90;;;;;;5094835;28;20051;-70
2022/07/27 06:58:18;;;;;;;8.60;2.33;;;16.30;99.90;;;;;;5094965;28;20055;-72
2022/07/27 07:00:44;;;;;;;6.03;1.95;;;16.30;99.90;;;;;;5094920;28;20036;-72
2022/07/27 07:03:10;;;;;;;7.00;2.22;;;16.40;99.90;;;;;;5076914;28;20082;-71
2022/07/27 07:05:44;;;;;;;10.95;2.22;;;16.30;99.90;;;;;;5094749;28;20357;-72
2022/07/27 07:08:10;;;;;;;7.63;2.17;;;16.40;99.90;;;;;;5094902;28;20044;-71
2022/07/27 07:10:37;;;;;;;4.60;1.48;;;16.20;99.90;;;;;;5098743;28;20047;-69
2022/07/27 07:13:04;;;;;;;8.95;1.90;;;16.20;99.90;;;;;;5098117;28;20449;-71
2022/07/27 07:15:30;;;;;;;2.90;1.85;;;16.20;99.90;;;;;;5098497;28;20039;-69
2022/07/27 07:17:55;;;;;;;7.07;2.03;;;16.30;99.90;;;;;;5098451;28;20454;-73
2022/07/27 07:20:21;;;;;;;3.38;1.75;;;16.20;99.90;;;;;;5098518;28;20062;-72
2022/07/27 07:22:47;;;;;;;3.42;1.75;;;16.20;99.90;;;;;;5098503;28;20356;-70
2022/07/27 07:25:13;;;;;;;5.25;2.05;;;16.30;99.90;;;;;;5080899;28;20127;-72
2022/07/27 07:27:38;;;;;;;6.25;2.17;;;16.50;99.90;;;;;;5097931;28;20043;-71
2022/07/27 07:30:04;;;;;;;8.85;1.95;;;16.60;99.90;;;;;;5097961;28;20056;-70
2022/07/27 07:32:30;;;;;;;7.72;2.33;;;16.60;99.90;;;;;;5098215;28;20048;-69
2022/07/27 07:34:56;;;;;;;7.50;2.17;;;16.50;99.90;;;;;;5098229;28;20100;-71
2022/07/27 07:37:21;;;;;;;8.30;2.40;;;16.50;99.90;;;;;;5080189;28;20071;-71
2022/07/27 07:39:47;;;;;;;6.82;1.90;;;16.50;99.90;;;;;;5080275;28;20055;-72
2022/07/27 07:42:13;;;;;;;6.70;2.20;;;16.50;99.90;;;;;;5062390;28;20048;-70
2022/07/27 07:44:39;;;;;;;8.25;2.45;;;16.50;99.90;;;;;;5097814;28;20086;-72
2022/07/27 07:47:05;;;;;;;5.45;2.40;;;16.60;99.90;;;;;;5097803;28;20422;-70
2022/07/27 07:49:30;;;;;;;6.60;2.40;;;16.60;99.90;;;;;;5097965;28;20087;-73
2022/07/27 07:51:56;;;;;;;7.60;2.17;;;16.70;99.90;;;;;;5097950;28;20137;-71
2022/07/27 07:54:22;;;;;;;6.65;2.38;;;16.70;99.90;;;;;;5079668;28;20040;-72
2022/07/27 07:56:47;;;;;;;8.02;2.10;;;16.80;99.90;;;;;;5097645;28;20044;-69
2022/07/27 07:59:13;;;;;;;8.57;2.20;;;16.90;99.90;;;;;;5097610;28;20040;-70
2022/07/27 08:01:39;;;;;;;8.77;2.63;;;16.90;99.90;;;;;;5097519;28;20058;-72
2022/07/27 08:04:04;;;;;;;6.47;2.67;;;17.00;99.90;;;;;;5079653;28;20424;-69
2022/07/27 08:06:30;;;;;;;7.35;2.60;;;17.10;99.90;;;;;;5097677;28;20040;-70
2022/07/27 08:08:56;;;;;;;6.57;2.60;;;17.20;99.90;;;;;;5097454;28;20048;-70
2022/07/27 08:11:21;;;;;;;9.75;2.25;;;17.30;99.90;;;;;;5097222;28;20437;-71
2022/07/27 08:13:47;;;;;;;9.30;2.28;;;17.30;99.90;;;;;;5097282;28;20086;-73
2022/07/27 08:16:13;;;;;;;9.93;2.60;;;17.30;99.90;;;;;;5097255;28;20109;-71
2022/07/27 08:18:38;;;;;;;9.70;3.13;;;17.20;99.90;;;;;;5097349;28;20036;-70
2022/07/27 08:21:04;;;;;;;6.47;2.63;;;17.30;99.90;;;;;;5078316;28;20048;-70
2022/07/27 08:23:32;;;;;;;13.85;3.40;;;17.20;99.90;;;;;;5096654;28;20055;-72
2022/07/27 08:25:58;;;;;;;14.38;3.08;;;17.20;99.90;;;;;;5097055;28;20054;-72
2022/07/27 08:28:25;;;;;;;9.88;2.50;;;17.00;99.90;;;;;;5096925;28;20480;-70
2022/07/27 08:30:51;;;;;;;8.00;2.45;;;17.20;99.90;;;;;;5079062;28;20048;-72
2022/07/27 08:33:17;;;;;;;8.65;3.15;;;17.20;99.90;;;;;;5078998;28;20079;-71
2022/07/27 08:35:43;;;;;;;5.80;2.10;;;17.20;99.90;;;;;;5079312;28;20044;-72
2022/07/27 08:38:09;;;;;;;9.45;2.33;;;17.30;99.90;;;;;;5078778;28;20119;-70
2022/07/27 08:40:36;;;;;;;8.60;2.45;;;17.30;99.90;;;;;;5096959;28;20333;-70
2022/07/27 08:43:03;;;;;;;8.30;2.83;;;17.40;99.90;;;;;;5096785;28;20044;-71
2022/07/27 08:45:29;;;;;;;10.13;2.97;;;17.50;99.90;;;;;;5096838;28;20144;-70
2022/07/27 08:47:55;;;;;;;7.28;2.25;;;17.60;99.90;;;;;;5096815;28;20071;-72
2022/07/27 08:50:24;;;;;;;8.98;2.08;;;17.70;99.90;;;;;;5096707;28;20043;-72
2022/07/27 08:52:50;;;;;;;7.05;2.05;;;17.70;99.90;;;;;;5096724;28;20354;-70
2022/07/27 08:55:15;;;;;;;6.60;2.40;;;17.70;99.90;;;;;;5096314;28;20123;-70
2022/07/27 08:57:41;;;;;;;7.85;1.90;;;17.70;99.90;;;;;;5096594;28;20515;-70
2022/07/27 09:00:07;;;;;;;6.85;2.10;;;17.70;99.90;;;;;;5096340;28;20055;-71
2022/07/27 09:02:34;;;;;;;6.75;2.42;;;17.60;99.90;;;;;;5096586;28;20326;-70
2022/07/27 09:04:59;;;;;;;10.38;2.60;;;17.50;99.90;;;;;;5096403;28;20044;-71
2022/07/27 09:07:30;;;;;;;5.45;1.80;;;17.40;99.90;;;;;;5096256;28;20480;-72
2022/07/27 09:09:56;;;;;;;4.85;1.80;;;17.50;99.90;;;;;;5096249;28;20127;-69
2022/07/27 09:12:27;;;;;;;7.18;2.38;;;17.70;99.90;;;;;;5095983;28;20428;-72
2022/07/27 09:15:06;;;;;;;6.40;1.75;;;17.90;99.90;;;;;;5095777;28;20083;-69
2022/07/27 09:17:33;;;;;;;8.48;1.98;;;18.30;99.90;;;;;;5096279;28;20048;-70
2022/07/27 09:20:09;;;;;;;5.95;1.70;;;18.40;99.90;;;;;;5096008;28;20054;-70
2022/07/27 09:22:44;;;;;;;4.95;1.95;;;18.60;99.90;;;;;;5096085;28;20052;-70
2022/07/27 09:25:15;;;;;;;12.07;2.05;;;18.50;99.90;;;;;;5095992;28;20043;-70
2022/07/27 09:27:42;;;;;;;3.50;1.83;;;18.40;99.90;;;;;;5096067;28;20400;-70
2022/07/27 09:30:14;;;;;;;5.68;2.08;;;18.40;99.90;;;;;;5095716;28;20063;-70
2022/07/27 09:32:57;;;;;;;7.10;2.00;;;18.40;99.90;;;;;;5095287;28;20051;-73
2022/07/27 09:35:32;;;;;;;6.00;1.75;;;18.30;99.90;;;;;;5095739;28;20036;-71
2022/07/27 09:38:33;;;;;;;10.48;3.63;;;18.10;99.90;;;;;;5096004;28;20048;-74
2022/07/27 09:41:00;;;;;;;6.32;1.67;;;18.00;99.90;;;;;;4994090;28;20054;-73
2022/07/27 09:43:27;;;;;;;6.75;2.22;;;18.00;99.90;;;;;;5075340;28;20355;-69
2022/07/27 09:45:53;;;;;;;12.45;2.05;;;18.00;99.90;;;;;;5095610;28;20052;-71
2022/07/27 09:48:22;;;;;;;6.38;1.52;;;17.90;99.90;;;;;;5095545;28;20048;-73
2022/07/27 09:50:57;;;;;;;6.90;1.90;;;17.80;99.90;;;;;;5095657;28;20036;-70
2022/07/27 09:53:23;;;;;;;6.43;2.33;;;17.80;99.90;;;;;;5095304;28;20098;-69
2022/07/27 09:56:12;;;;;;;5.18;2.03;;;17.70;99.90;;;;;;5095454;28;20047;-73
2022/07/27 09:58:54;;;;;;;7.07;1.80;;;17.80;99.90;;;;;;5095565;28;20044;-71
2022/07/27 10:01:33;;;;;;;4.80;1.95;;;18.00;99.90;;;;;;5095477;28;20415;-73
2022/07/27 10:04:01;;;;;;;5.70;1.80;;;18.20;99.90;;;;;;5095413;28;20106;-70
2022/07/27 10:06:28;;;;;;;6.00;1.65;;;18.40;99.90;;;;;;5095193;28;20373;-70
2022/07/27 10:08:55;;;;;;;6.88;1.80;;;18.50;99.90;;;;;;5095349;28;20040;-72
2022/07/27 10:11:21;;;;;;;7.70;2.15;;;18.90;99.90;;;;;;5094767;28;20055;-71
2022/07/27 10:13:48;;;;;;;4.28;1.45;;;18.90;99.90;;;;;;5077652;28;20128;-71
2022/07/27 10:16:16;;;;;;;4.20;1.65;;;18.80;99.90;;;;;;5095189;28;20051;-71
2022/07/27 10:19:01;;;;;;;9.57;1.73;;;18.60;99.90;;;;;;5095286;28;20174;-72
2022/07/27 10:21:27;;;;;;;5.85;1.67;;;18.90;99.90;;;;;;5095234;28;20040;-71
2022/07/27 10:24:04;;;;;;;3.85;1.60;;;19.00;99.90;;;;;;5095390;28;20108;-73
2022/07/27 10:26:36;;;;;;;7.88;1.63;;;19.00;99.90;;;;;;5095217;28;20311;-72
2022/07/27 10:29:02;;;;;;;5.93;2.17;;;18.90;99.90;;;;;;5095153;28;20056;-71
2022/07/27 10:31:36;;;;;;;3.45;1.40;;;19.00;99.90;;;;;;5094892;28;20118;-70
2022/07/27 10:34:04;;;;;;;5.63;1.30;;;19.20;99.90;;;;;;5095238;28;20047;-72
2022/07/27 10:36:30;;;;;;;4.85;1.58;;;19.30;99.90;;;;;;5094987;28;20032;-71
2022/07/27 10:38:57;;;;;;;3.55;1.38;;;19.40;99.90;;;;;;5095141;28;20116;-73
2022/07/27 10:41:29;;;;;;;6.57;1.25;;;19.00;99.90;;;;;;5095148;28;20332;-70
2022/07/27 10:44:13;;;;;;;3.15;1.80;;;19.10;99.90;;;;;;5077356;28;20112;-71
2022/07/27 10:46:43;;;;;;;3.45;1.20;;;19.40;99.90;;;;;;5098994;28;20044;-73
2022/07/27 10:49:25;;;;;;;4.55;1.40;;;19.40;99.90;;;;;;5099239;28;20067;-73
2022/07/27 10:51:52;;;;;;;8.40;1.65;;;19.60;99.90;;;;;;5098693;28;20040;-72
2022/07/27 10:54:37;;;;;;;3.88;1.35;;;19.60;99.90;;;;;;5098919;28;20066;-70
2022/07/27 10:57:06;;;;;;;5.45;1.50;;;19.80;99.90;;;;;;5098804;28;20068;-70
2022/07/27 10:59:43;;;;;;;6.65;1.65;;;20.00;99.90;;;;;;5081213;28;20133;-70
2022/07/27 11:02:15;;;;;;;5.60;1.75;;;19.90;99.40;;;;;;5098683;28;20052;-72
2022/07/27 11:04:46;;;;;;;4.05;1.50;;;19.80;99.90;;;;;;5098680;28;20055;-73
2022/07/27 11:07:18;;;;;;;5.32;1.17;;;19.70;99.90;;;;;;5098765;28;20043;-72
2022/07/27 11:09:46;;;;;;;2.55;1.38;;;19.50;99.90;;;;;;5098732;28;20539;-72
2022/07/27 11:12:12;;;;;;;5.38;1.13;;;19.80;99.90;;;;;;5098620;28;20053;-71
2022/07/27 11:14:46;;;;;;;3.08;1.13;;;20.00;99.90;;;;;;5098599;28;20052;-73
2022/07/27 11:17:13;;;;;;;3.70;1.38;;;20.20;99.90;;;;;;5098477;28;20044;-70
2022/07/27 11:19:39;;;;;;;6.82;1.42;;;20.10;99.90;;;;;;5098238;28;20093;-70
2022/07/27 11:22:04;;;;;;;2.13;1.10;;;20.20;99.40;;;;;;5098327;28;20044;-74
2022/07/27 11:24:33;;;;;;;4.75;1.48;;;20.40;99.50;;;;;;5080320;28;20044;-74
2022/07/27 11:26:59;;;;;;;4.22;1.42;;;20.40;99.80;;;;;;5098440;28;20122;-72
2022/07/27 11:29:25;;;;;;;7.50;1.63;;;20.50;98.10;;;;;;5098290;28;20076;-73
2022/07/27 11:31:53;;;;;;;9.38;1.85;;;20.80;99.60;;;;;;5097963;28;20048;-71
2022/07/27 11:34:35;;;;;;;5.72;2.13;;;20.90;99.90;;;;;;5098081;28;20059;-73
2022/07/27 11:37:02;;;;;;;6.70;2.05;;;20.70;99.90;;;;;;5098233;28;20358;-70
2022/07/27 11:39:31;;;;;;;5.18;1.15;;;20.40;99.90;;;;;;5098062;28;20048;-73
2022/07/27 11:42:00;;;;;;;5.53;1.63;;;20.40;99.90;;;;;;5097946;28;20127;-70
2022/07/27 11:44:27;;;;;;;5.07;1.27;;;20.70;99.90;;;;;;5097809;28;20043;-75
2022/07/27 11:46:53;;;;;;;3.13;0.90;;;21.10;99.90;;;;;;5098371;28;20070;-70
2022/07/27 11:49:27;;;;;;;4.63;1.30;;;21.30;99.90;;;;;;5097840;28;20404;-73
2022/07/27 11:51:58;;;;;;;5.80;1.33;;;21.10;99.80;;;;;;5097865;28;20051;-73
2022/07/27 11:54:30;;;;;;;8.60;1.45;;;20.90;99.90;;;;;;5079571;28;20088;-71
2022/07/27 11:56:59;;;;;;;4.30;1.63;;;21.10;99.90;;;;;;5097657;28;20059;-70
2022/07/27 11:59:29;;;;;;;5.38;1.25;;;21.50;99.90;;;;;;5097603;28;20075;-69
2022/07/27 12:02:06;;;;;;;2.88;0.90;;;22.00;99.90;;;;;;5097630;28;20036;-70
2022/07/27 12:04:36;;;;;;;2.28;1.20;;;22.40;99.30;;;;;;5097553;28;20032;-69
2022/07/27 12:07:15;;;;;;;4.07;1.45;;;22.90;99.10;;;;;;5097240;28;20047;-69
2022/07/27 12:09:46;;;;;;;4.43;1.13;;;23.00;97.20;;;;;;5097479;28;20112;-73
2022/07/27 12:12:45;;;;;;;3.45;1.10;;;22.90;96.50;;;;;;5097382;28;20040;-70
2022/07/27 12:15:16;;;;;;;4.10;1.17;;;23.00;95.60;;;;;;5079198;28;20470;-72
2022/07/27 12:17:43;;;;;;;3.28;1.08;;;22.90;95.10;;;;;;5097074;28;20051;-68
2022/07/27 12:20:08;;;;;;;3.90;1.40;;;23.20;95.00;;;;;;5097140;28;20044;-71
2022/07/27 12:22:35;;;;;;;5.68;1.13;;;23.40;95.20;;;;;;5097148;28;20118;-70
2022/07/27 12:25:15;;;;;;;1.98;0.93;;;23.40;95.20;;;;;;5097317;28;20047;-71
2022/07/27 12:27:53;;;;;;;8.00;1.08;;;23.80;95.00;;;;;;5079237;28;20466;-71
2022/07/27 12:30:43;;;;;;;4.97;1.27;;;23.80;93.30;;;;;;5097083;28;20039;-70
2022/07/27 12:33:41;;;;;;;5.38;1.80;;;23.80;94.00;;;;;;5096541;28;20036;-70
2022/07/27 12:36:07;;;;;;;2.83;1.65;;;24.30;93.40;;;;;;5096820;28;20454;-72
2022/07/27 12:38:49;;;;;;;7.90;1.73;;;24.50;94.50;;;;;;5096786;28;20119;-70
2022/07/27 12:41:43;;;;;;;3.72;1.42;;;24.70;93.60;;;;;;5097045;28;20052;-71
2022/07/27 12:44:15;;;;;;;3.47;1.60;;;24.70;93.00;;;;;;5074850;28;20048;-69
2022/07/27 12:47:39;;;;;;;8.75;2.13;;;24.50;93.20;;;;;;5096638;28;20358;-71
2022/07/27 12:50:06;;;;;;;8.20;2.13;;;23.90;93.40;;;;;;5096611;28;20064;-69
2022/07/27 12:52:36;;;;;;;;;;;23.30;94.10;;;;;;5096914;28;20055;-71
2022/07/27 12:55:03;;;;;;;6.07;1.98;;;22.70;94.20;;;;;;5096329;28;20007;-71
2022/07/27 12:57:29;;;;;;;6.80;1.70;;;22.30;95.40;;;;;;5078666;28;20131;-69